CheckWX is a tool to help pilots better visualize weather data.  It is not intended as a substitute for an official pre-flight weather briefing.

12:17:04 UTC

KENW METAR
Kenosha Regional Airport
Kenosha, Wisconsin, USA
Current

24 mins ago

KENW 021153Z 06003KT 10SM FEW065 22/18 A3006 RMK AO2 SLP175 T02170178 10217 20178 51008
Observed
Jul-2 @ 11:53 UTC
Wind
  • 060° at 3 KTS
Visibility
10 SM
Flight Rules
VFR
Cloud Levels
  • Few at 6,500' AGL
Temperature
22°C / 72°F
Dewpoint
18°C / 64°F
Humidity
78%
Altimeter
30.06" Hg
Pressure
1017.92 hPa
Previous

1 hour ago

KENW 021053Z AUTO 00000KT 10SM FEW065 19/17 A3005 RMK AO2 SLP173 T01890167 $
Observed
Jul-2 @ 10:53 UTC
Visibility
10 SM
Flight Rules
VFR
Cloud Levels
  • Few at 6,500' AGL
Temperature
19°C / 66°F
Dewpoint
17°C / 63°F
Humidity
88%
Altimeter
30.05" Hg
Pressure
1017.62 hPa
Previous

2 hours ago

KENW 020953Z AUTO 01003KT 10SM SCT070 19/16 A3005 RMK AO2 SLP170 T01890161 $
Observed
Jul-2 @ 09:53 UTC
Wind
  • 010° at 3 KTS
Visibility
10 SM
Flight Rules
VFR
Cloud Levels
  • Scattered at 7,000' AGL
Temperature
19°C / 66°F
Dewpoint
16°C / 61°F
Humidity
83%
Altimeter
30.05" Hg
Pressure
1017.62 hPa